createdAt,value
2018-09-10T00:00:45.990Z,84.44
2018-09-10T00:01:45.973Z,83.48
2018-09-10T00:02:45.958Z,84.25
2018-09-10T00:03:45.942Z,84.44
2018-09-10T00:04:45.922Z,83.86
2018-09-10T00:05:45.913Z,83.58
2018-09-10T00:06:45.891Z,83.29
2018-09-10T00:07:45.871Z,84.15
2018-09-10T00:08:45.858Z,83.58
2018-09-10T00:09:45.836Z,83.58
2018-09-10T00:10:45.820Z,83.48
2018-09-10T00:11:45.814Z,84.15
2018-09-10T00:12:45.791Z,84.53
2018-09-10T00:13:45.768Z,83.86
2018-09-10T00:14:45.761Z,84.25
2018-09-10T00:15:45.740Z,84.34
2018-09-10T00:16:45.721Z,84.53
2018-09-10T00:17:45.702Z,84.44
2018-09-10T00:18:45.686Z,84.53
2018-09-10T00:19:45.667Z,84.34
2018-09-10T00:20:45.654Z,84.91
2018-09-10T00:21:45.635Z,84.72
2018-09-10T00:22:45.614Z,84.53
2018-09-10T00:23:45.599Z,84.63
2018-09-10T00:24:45.586Z,84.44
2018-09-10T00:25:45.564Z,84.05
2018-09-10T00:26:45.548Z,83.95
2018-09-10T00:27:45.540Z,84.44
2018-09-10T00:28:45.515Z,84.34
2018-09-10T00:29:45.496Z,84.91
2018-09-10T00:30:45.482Z,84.63
2018-09-10T00:31:45.469Z,84.72
2018-09-10T00:32:45.448Z,84.53
2018-09-10T00:33:45.434Z,84.63
2018-09-10T00:34:45.414Z,84.63
2018-09-10T00:35:45.396Z,84.34
2018-09-10T00:36:45.381Z,84.15
2018-09-10T00:37:45.364Z,84.05
2018-09-10T00:38:45.345Z,83.76
2018-09-10T00:39:45.329Z,84.34
2018-09-10T00:40:45.321Z,84.72
2018-09-10T00:41:45.294Z,84.72
2018-09-10T00:42:45.276Z,84.82
2018-09-10T00:43:45.261Z,84.88
2018-09-10T00:44:45.245Z,84.68
2018-09-10T00:45:45.226Z,84.68
2018-09-10T00:46:45.207Z,84.88
2018-09-10T00:47:45.199Z,84.91
2018-09-10T00:48:45.177Z,84.68
2018-09-10T00:49:45.156Z,84.78
2018-09-10T00:50:45.141Z,84.68
2018-09-10T00:51:45.129Z,84.88
2018-09-10T00:52:45.107Z,84.88
2018-09-10T00:53:45.092Z,84.88
2018-09-10T00:54:45.071Z,85.16
2018-09-10T00:55:45.054Z,85.35
2018-09-10T00:56:45.037Z,85.74
2018-09-10T00:57:45.019Z,85.06
2018-09-10T00:58:45.002Z,85.35
2018-09-10T00:59:44.985Z,84.78
2018-09-10T01:00:44.970Z,84.78
2018-09-10T01:01:44.953Z,85.06
2018-09-10T01:02:44.934Z,85.25
2018-09-10T01:03:44.915Z,85.06
2018-09-10T01:04:44.902Z,85.54
2018-09-10T01:05:44.884Z,85.25
2018-09-10T01:06:44.866Z,84.78
2018-09-10T01:07:44.851Z,85.35
2018-09-10T01:08:44.837Z,85.64
2018-09-10T01:09:44.813Z,85.54
2018-09-10T01:10:44.804Z,85.93
2018-09-10T01:11:44.781Z,85.74
2018-09-10T01:12:44.765Z,85.16
2018-09-10T01:13:44.746Z,85.64
2018-09-10T01:14:44.731Z,85.83
2018-09-10T01:15:44.711Z,85.74
2018-09-10T01:16:44.703Z,85.83
2018-09-10T01:17:44.676Z,85.06
2018-09-10T01:18:44.663Z,84.97
2018-09-10T01:19:44.644Z,85.45
2018-09-10T01:20:44.628Z,85.45
2018-09-10T01:21:44.612Z,85.25
2018-09-10T01:22:44.591Z,85.06
2018-09-10T01:23:44.575Z,85.74
2018-09-10T01:24:44.559Z,85.06
2018-09-10T01:25:44.541Z,85.35
2018-09-10T01:26:44.524Z,85.16
2018-09-10T01:27:44.506Z,85.16
2018-09-10T01:28:44.489Z,84.88
2018-09-10T01:29:44.474Z,85.16
2018-09-10T01:30:44.455Z,85.35
2018-09-10T01:31:44.438Z,85.25
2018-09-10T01:32:44.421Z,84.63
2018-09-10T01:33:44.403Z,84.68
2018-09-10T01:34:44.385Z,84.49
2018-09-10T01:35:44.371Z,85.11
2018-09-10T01:36:44.352Z,85.16
2018-09-10T01:37:44.335Z,84.30
2018-09-10T01:38:44.322Z,84.78
2018-09-10T01:39:44.300Z,85.06
2018-09-10T01:40:44.284Z,84.97
2018-09-10T01:41:44.276Z,85.16
2018-09-10T01:42:44.249Z,84.97
2018-09-10T01:43:44.234Z,84.97
2018-09-10T01:44:44.213Z,85.06
2018-09-10T01:45:44.197Z,84.88
2018-09-10T01:46:44.181Z,84.68
2018-09-10T01:47:44.163Z,85.16
2018-09-10T01:48:44.146Z,84.97
2018-09-10T01:49:44.128Z,85.06
2018-09-10T01:50:44.110Z,85.25
2018-09-10T01:51:44.096Z,85.16
2018-09-10T01:52:44.079Z,84.97
2018-09-10T01:53:44.063Z,85.16
2018-09-10T01:54:44.045Z,84.58
2018-09-10T01:55:44.029Z,84.49
2018-09-10T01:56:44.008Z,84.88
2018-09-10T01:57:44.011Z,84.11
2018-09-10T01:58:43.974Z,84.01
2018-09-10T01:59:43.958Z,84.34
2018-09-10T02:00:43.940Z,84.88
2018-09-10T02:01:43.924Z,84.97
2018-09-10T02:02:43.906Z,84.68
2018-09-10T02:03:43.893Z,84.78
2018-09-10T02:04:43.872Z,84.97
2018-09-10T02:05:43.858Z,85.16
2018-09-10T02:06:43.841Z,85.16
2018-09-10T02:07:43.820Z,84.58
2018-09-10T02:08:43.803Z,84.88
2018-09-10T02:09:43.787Z,85.45
2018-09-10T02:10:43.768Z,85.45
2018-09-10T02:11:43.752Z,86.69
2018-09-10T02:12:43.738Z,87.41
2018-09-10T02:13:43.716Z,87.99
2018-09-10T02:14:43.702Z,89.23
2018-09-10T02:15:43.682Z,90.00
2018-09-10T02:16:43.668Z,90.39
2018-09-10T02:17:43.651Z,90.58
2018-09-10T02:18:43.632Z,90.29
2018-09-10T02:19:43.616Z,91.05
2018-09-10T02:20:43.598Z,91.05
2018-09-10T02:21:43.581Z,90.67
2018-09-10T02:22:43.573Z,90.48
2018-09-10T02:23:43.688Z,90.29
2018-09-10T02:24:43.530Z,90.86
2018-09-10T02:25:43.513Z,90.29
2018-09-10T02:26:43.495Z,90.19
2018-09-10T02:27:43.490Z,90.00
2018-09-10T02:28:43.464Z,90.29
2018-09-10T02:29:43.450Z,90.19
2018-09-10T02:30:43.424Z,90.19
2018-09-10T02:31:43.408Z,90.39
2018-09-10T02:32:43.394Z,90.67
2018-09-10T02:33:43.373Z,90.19
2018-09-10T02:34:43.362Z,89.43
2018-09-10T02:35:43.341Z,89.04
2018-09-10T02:36:43.324Z,89.23
2018-09-10T02:37:43.303Z,89.14
2018-09-10T02:38:43.374Z,89.14
2018-09-10T02:39:43.270Z,89.14
2018-09-10T02:40:43.253Z,88.95
2018-09-10T02:41:43.238Z,89.23
2018-09-10T02:42:43.219Z,88.42
2018-09-10T02:43:43.200Z,88.61
2018-09-10T02:44:43.186Z,88.70
2018-09-10T02:45:43.165Z,88.80
2018-09-10T02:46:43.149Z,88.18
2018-09-10T02:47:43.134Z,88.18
2018-09-10T02:48:43.116Z,88.32
2018-09-10T02:49:43.094Z,87.74
2018-09-10T02:50:43.080Z,87.65
2018-09-10T02:51:43.061Z,87.55
2018-09-10T02:52:43.047Z,87.55
2018-09-10T02:53:43.027Z,87.74
2018-09-10T02:54:43.010Z,87.94
2018-09-10T02:55:42.993Z,87.94
2018-09-10T02:56:42.976Z,87.37
2018-09-10T02:57:42.959Z,88.51
2018-09-10T02:58:42.940Z,88.70
2018-09-10T02:59:42.922Z,89.81
2018-09-10T03:00:42.907Z,91.15
2018-09-10T03:01:42.886Z,91.34
2018-09-10T03:02:42.870Z,91.77
2018-09-10T03:03:42.853Z,92.73
2018-09-10T03:04:42.835Z,92.83
2018-09-10T03:05:42.817Z,93.40
2018-09-10T03:06:42.801Z,93.30
2018-09-10T03:07:42.785Z,93.88
2018-09-10T03:08:42.765Z,94.26
2018-09-10T03:09:42.747Z,94.74
2018-09-10T03:10:42.728Z,94.93
2018-09-10T03:11:42.712Z,95.12
2018-09-10T03:13:15.905Z,95.31
2018-09-10T03:13:42.678Z,95.41
2018-09-10T03:14:42.661Z,95.70
2018-09-10T03:15:42.645Z,95.31
2018-09-10T03:16:42.626Z,95.70
2018-09-10T03:17:42.608Z,95.51
2018-09-10T03:18:42.590Z,95.70
2018-09-10T03:19:42.581Z,95.61
2018-09-10T03:20:42.557Z,95.51
2018-09-10T03:21:42.540Z,95.03
2018-09-10T03:22:42.521Z,94.74
2018-09-10T03:23:42.504Z,95.03
2018-09-10T03:24:42.486Z,94.74
2018-09-10T03:25:42.468Z,94.93
2018-09-10T03:26:42.452Z,94.55
2018-09-10T03:27:42.435Z,94.36
2018-09-10T03:28:42.416Z,94.36
2018-09-10T03:29:42.398Z,94.65
2018-09-10T03:30:42.382Z,94.17
2018-09-10T03:31:42.379Z,94.36
2018-09-10T03:32:42.347Z,94.65
2018-09-10T03:33:42.422Z,94.93
2018-09-10T03:34:42.311Z,94.74
2018-09-10T03:35:42.295Z,95.22
2018-09-10T03:36:42.292Z,95.79
2018-09-10T03:37:42.265Z,95.89
2018-09-10T03:38:42.242Z,95.70
2018-09-10T03:39:42.224Z,96.18
2018-09-10T03:40:42.206Z,96.66
2018-09-10T03:41:42.190Z,96.27
2018-09-10T03:42:42.171Z,96.08
2018-09-10T03:43:42.155Z,96.75
2018-09-10T03:44:42.136Z,96.56
2018-09-10T03:45:42.121Z,96.08
2018-09-10T03:46:42.101Z,95.61
2018-09-10T03:47:42.086Z,94.74
2018-09-10T03:48:42.067Z,94.40
2018-09-10T03:49:42.049Z,94.69
2018-09-10T03:50:42.031Z,95.22
2018-09-10T03:51:42.014Z,95.17
2018-09-10T03:52:41.995Z,95.27
2018-09-10T03:53:41.979Z,95.17
2018-09-10T03:54:41.962Z,95.27
2018-09-10T03:55:41.945Z,94.69
2018-09-10T03:56:41.926Z,94.12
2018-09-10T03:57:41.908Z,93.74
2018-09-10T03:58:41.891Z,93.83
2018-09-10T03:59:41.875Z,94.50
2018-09-10T04:00:41.856Z,94.21
2018-09-10T04:01:41.884Z,94.40
2018-09-10T04:02:41.821Z,94.40
2018-09-10T04:03:41.804Z,94.02
2018-09-10T04:04:41.787Z,95.46
2018-09-10T04:05:41.772Z,96.70
2018-09-10T04:06:41.755Z,96.51
2018-09-10T04:07:41.734Z,95.75
2018-09-10T04:08:41.715Z,95.46
2018-09-10T04:09:41.702Z,95.41
2018-09-10T04:10:41.682Z,95.07
2018-09-10T04:11:41.665Z,95.07
2018-09-10T04:12:41.648Z,95.65
2018-09-10T04:13:41.632Z,95.46
2018-09-10T04:14:41.610Z,95.27
2018-09-10T04:15:41.594Z,94.40
2018-09-10T04:16:41.583Z,94.31
2018-09-10T04:17:41.560Z,95.17
2018-09-10T04:18:41.541Z,94.40
2018-09-10T04:19:41.526Z,94.79
2018-09-10T04:20:41.515Z,94.50
2018-09-10T04:21:41.491Z,95.17
2018-09-10T04:22:41.475Z,94.98
2018-09-10T04:23:41.465Z,95.07
2018-09-10T04:24:41.436Z,95.17
2018-09-10T04:25:41.416Z,95.56
2018-09-10T04:26:41.400Z,96.13
2018-09-10T04:27:41.384Z,95.84
2018-09-10T04:28:41.368Z,95.75
2018-09-10T04:29:41.349Z,96.03
2018-09-10T04:30:41.331Z,95.94
2018-09-10T04:31:41.319Z,95.94
2018-09-10T04:32:41.298Z,96.03
2018-09-10T04:33:41.286Z,96.42
2018-09-10T04:34:41.268Z,96.03
2018-09-10T04:35:41.245Z,95.65
2018-09-10T04:36:41.227Z,95.56
2018-09-10T04:37:41.210Z,95.46
2018-09-10T04:38:41.193Z,95.75
2018-09-10T04:39:41.175Z,95.75
2018-09-10T04:40:41.159Z,95.94
2018-09-10T04:41:41.142Z,96.13
2018-09-10T04:42:41.121Z,96.42
2018-09-10T04:43:41.111Z,95.84
2018-09-10T04:44:41.089Z,95.65
2018-09-10T04:45:41.071Z,95.84
2018-09-10T04:46:41.054Z,95.94
2018-09-10T04:47:41.039Z,96.51
2018-09-10T04:48:41.020Z,97.85
2018-09-10T04:49:41.044Z,98.47
2018-09-10T04:50:40.986Z,98.38
2018-09-10T04:51:40.964Z,99.05
2018-09-10T04:52:40.947Z,98.95
2018-09-10T04:53:40.929Z,98.86
2018-09-10T04:54:40.910Z,98.66
2018-09-10T04:55:40.894Z,98.86
2018-09-10T04:56:40.876Z,98.00
2018-09-10T04:57:40.861Z,97.66
2018-09-10T04:58:40.839Z,97.80
2018-09-10T04:59:40.828Z,97.66
2018-09-10T05:00:40.807Z,96.89
2018-09-10T05:01:40.788Z,96.70
2018-09-10T05:02:40.775Z,96.42
2018-09-10T05:03:40.762Z,96.03
2018-09-10T05:04:40.863Z,96.42
2018-09-10T05:05:40.729Z,96.51
2018-09-10T05:06:40.717Z,96.32
2018-09-10T05:07:40.683Z,95.94
2018-09-10T05:08:40.667Z,95.84
2018-09-10T05:09:40.648Z,95.94
2018-09-10T05:10:40.631Z,96.03
2018-09-10T05:11:40.616Z,96.03
2018-09-10T05:12:40.594Z,96.13
2018-09-10T05:13:40.577Z,96.03
2018-09-10T05:14:40.560Z,95.84
2018-09-10T05:15:40.542Z,95.46
2018-09-10T05:16:40.535Z,95.70
2018-09-10T05:17:40.512Z,95.70
2018-09-10T05:18:40.490Z,95.41
2018-09-10T05:19:40.472Z,95.60
2018-09-10T05:20:40.494Z,95.03
2018-09-10T05:21:40.436Z,95.41
2018-09-10T05:22:40.420Z,94.84
2018-09-10T05:23:40.417Z,95.31
2018-09-10T05:24:40.384Z,95.84
2018-09-10T05:25:40.373Z,95.70
2018-09-10T05:26:40.349Z,95.79
2018-09-10T05:27:40.332Z,96.61
2018-09-10T05:28:40.314Z,96.61
2018-09-10T05:29:40.295Z,96.32
2018-09-10T05:30:40.287Z,96.51
2018-09-10T05:31:40.261Z,96.89
2018-09-10T05:32:40.245Z,96.47
2018-09-10T05:33:40.228Z,96.70
2018-09-10T05:34:40.210Z,96.70
2018-09-10T05:35:40.192Z,96.66
2018-09-10T05:36:40.176Z,96.27
2018-09-10T05:37:40.155Z,96.08
2018-09-10T05:38:40.144Z,96.18
2018-09-10T05:39:40.123Z,95.89
2018-09-10T05:40:40.102Z,95.70
2018-09-10T05:41:40.125Z,96.08
2018-09-10T05:42:40.067Z,95.22
2018-09-10T05:43:40.050Z,95.31
2018-09-10T05:44:40.033Z,95.89
2018-09-10T05:45:40.015Z,95.89
2018-09-10T05:46:39.999Z,95.89
2018-09-10T05:47:40.065Z,96.08
2018-09-10T05:48:39.964Z,96.27
2018-09-10T05:49:39.946Z,96.56
2018-09-10T05:50:39.932Z,96.18
2018-09-10T05:51:39.911Z,96.47
2018-09-10T05:52:39.892Z,96.37
2018-09-10T05:53:39.876Z,96.75
2018-09-10T05:54:39.858Z,96.66
2018-09-10T05:55:39.924Z,96.75
2018-09-10T05:56:39.825Z,96.47
2018-09-10T05:57:39.805Z,96.75
2018-09-10T05:58:39.786Z,96.37
2018-09-10T05:59:39.771Z,96.47
2018-09-10T06:00:39.756Z,96.66
2018-09-10T06:01:39.735Z,97.04
2018-09-10T06:02:39.719Z,97.23
2018-09-10T06:03:39.699Z,97.23
2018-09-10T06:04:39.684Z,97.04
2018-09-10T06:05:39.669Z,97.33
2018-09-10T06:06:39.647Z,97.23
2018-09-10T06:07:39.630Z,97.23
2018-09-10T06:08:39.661Z,97.23
2018-09-10T06:09:39.595Z,97.04
2018-09-10T06:10:39.696Z,97.33
2018-09-10T06:11:39.560Z,97.04
2018-09-10T06:12:39.551Z,97.04
2018-09-10T06:13:39.526Z,97.14
2018-09-10T06:14:39.509Z,97.42
2018-09-10T06:15:39.490Z,96.56
2018-09-10T06:16:39.541Z,96.75
2018-09-10T06:17:39.453Z,96.94
2018-09-10T06:18:39.444Z,97.33
2018-09-10T06:19:39.418Z,97.23
2018-09-10T06:20:39.402Z,97.14
2018-09-10T06:21:39.384Z,97.56
2018-09-10T06:22:39.367Z,97.14
2018-09-10T06:23:39.348Z,97.56
2018-09-10T06:24:39.332Z,97.18
2018-09-10T06:25:39.313Z,97.18
2018-09-10T06:26:39.297Z,97.28
2018-09-10T06:27:39.279Z,97.38
2018-09-10T06:28:39.263Z,96.61
2018-09-10T06:29:39.241Z,97.18
2018-09-10T06:30:39.233Z,97.28
2018-09-10T06:31:39.217Z,97.28
2018-09-10T06:32:39.196Z,97.38
2018-09-10T06:33:39.172Z,97.56
2018-09-10T06:34:39.162Z,98.05
2018-09-10T06:35:39.151Z,97.85
2018-09-10T06:36:39.121Z,97.66
2018-09-10T06:37:39.103Z,97.76
2018-09-10T06:38:39.085Z,98.05
2018-09-10T06:39:39.070Z,98.14
2018-09-10T06:40:39.053Z,97.38
2018-09-10T06:41:39.036Z,97.38
2018-09-10T06:42:39.019Z,96.89
2018-09-10T06:43:38.999Z,97.38
2018-09-10T06:44:38.987Z,98.05
2018-09-10T06:45:38.962Z,97.85
2018-09-10T06:46:38.961Z,97.85
2018-09-10T06:47:39.009Z,98.81
2018-09-10T06:48:38.915Z,98.14
2018-09-10T06:49:38.893Z,98.14
2018-09-10T06:50:38.876Z,98.52
2018-09-10T06:51:38.864Z,98.43
2018-09-10T06:52:38.843Z,98.52
2018-09-10T06:53:38.829Z,98.38
2018-09-10T06:54:38.807Z,98.86
2018-09-10T06:55:38.789Z,98.38
2018-09-10T06:56:38.773Z,98.19
2018-09-10T06:57:38.755Z,97.61
2018-09-10T06:58:38.744Z,98.00
2018-09-10T06:59:38.724Z,97.90
2018-09-10T07:00:38.704Z,98.48
2018-09-10T07:01:38.683Z,98.48
2018-09-10T07:02:38.669Z,98.57
2018-09-10T07:03:38.656Z,98.57
2018-09-10T07:04:38.637Z,98.28
2018-09-10T07:05:38.617Z,98.86
2018-09-10T07:06:38.597Z,98.28
2018-09-10T07:07:38.580Z,98.28
2018-09-10T07:08:38.576Z,98.67
2018-09-10T07:09:38.545Z,99.24
2018-09-10T07:10:38.530Z,98.19
2018-09-10T07:11:38.512Z,98.86
2018-09-10T07:12:38.561Z,99.24
2018-09-10T07:13:38.475Z,98.86
2018-09-10T07:14:38.467Z,99.44
2018-09-10T07:15:38.445Z,99.24
2018-09-10T07:16:38.428Z,99.53
2018-09-10T07:17:38.408Z,99.82
2018-09-10T07:18:38.412Z,99.99
2018-09-10T07:19:38.371Z,99.99
2018-09-10T07:20:38.355Z,99.99
2018-09-10T07:21:38.341Z,99.99
2018-09-10T07:22:38.321Z,99.99
2018-09-10T07:23:38.304Z,99.99
2018-09-10T07:24:38.288Z,99.99
2018-09-10T07:25:38.323Z,99.99
2018-09-10T07:26:38.267Z,99.99
2018-09-10T07:27:38.252Z,99.99
2018-09-10T07:28:38.218Z,99.99
2018-09-10T07:29:38.214Z,99.99
2018-09-10T07:30:38.193Z,99.99
2018-09-10T07:31:38.176Z,99.99
2018-09-10T07:32:38.151Z,99.99
2018-09-10T07:33:38.133Z,99.99
2018-09-10T07:34:38.174Z,99.99
2018-09-10T07:35:38.097Z,99.92
2018-09-10T07:36:38.081Z,99.99
2018-09-10T07:37:38.062Z,99.63
2018-09-10T07:38:38.058Z,99.34
2018-09-10T07:39:38.030Z,99.34
2018-09-10T07:40:38.016Z,98.86
2018-09-10T07:41:37.996Z,98.86
2018-09-10T07:42:37.980Z,99.25
2018-09-10T07:43:37.987Z,99.63
2018-09-10T07:44:37.949Z,99.34
2018-09-10T07:45:37.933Z,99.68
2018-09-10T07:46:37.912Z,99.78
2018-09-10T07:47:37.894Z,99.99
2018-09-10T07:48:37.885Z,99.99
2018-09-10T07:49:37.859Z,99.99
2018-09-10T07:50:37.854Z,99.99
2018-09-10T07:51:37.826Z,99.99
2018-09-10T07:52:37.810Z,99.99
2018-09-10T07:53:37.791Z,99.99
2018-09-10T07:54:37.853Z,99.87
2018-09-10T07:55:37.759Z,99.99
2018-09-10T07:56:37.743Z,99.99
2018-09-10T07:57:37.730Z,99.99
2018-09-10T07:58:37.706Z,99.99
2018-09-10T07:59:37.690Z,99.99
2018-09-10T08:00:37.674Z,99.99
2018-09-10T08:01:37.657Z,99.99
2018-09-10T08:02:37.651Z,99.99
2018-09-10T08:03:37.628Z,99.99
2018-09-10T08:04:37.611Z,99.99
2018-09-10T08:05:37.590Z,99.99
2018-09-10T08:06:37.574Z,99.99
2018-09-10T08:07:37.558Z,99.99
2018-09-10T08:08:37.541Z,99.99
2018-09-10T08:09:37.598Z,99.99
2018-09-10T08:10:37.506Z,99.99
2018-09-10T08:11:37.489Z,99.99
2018-09-10T08:12:37.482Z,99.99
2018-09-10T08:13:37.457Z,99.99
2018-09-10T08:14:37.440Z,99.99
2018-09-10T08:15:37.423Z,99.99
2018-09-10T08:16:37.488Z,99.99
2018-09-10T08:17:37.391Z,99.99
2018-09-10T08:18:37.373Z,99.99
2018-09-10T08:19:37.362Z,99.99
2018-09-10T08:20:37.339Z,99.99
2018-09-10T08:21:37.321Z,99.99
2018-09-10T08:22:37.364Z,99.99
2018-09-10T08:23:37.291Z,99.99
2018-09-10T08:24:37.277Z,99.99
2018-09-10T08:25:37.254Z,99.99
2018-09-10T08:26:37.243Z,99.99
2018-09-10T08:27:37.225Z,99.99
2018-09-10T08:28:37.208Z,99.99
2018-09-10T08:29:37.188Z,99.99
2018-09-10T08:30:37.176Z,99.99
2018-09-10T08:31:37.162Z,99.99
2018-09-10T08:32:37.139Z,99.99
2018-09-10T08:33:37.122Z,99.99
2018-09-10T08:34:37.108Z,99.99
2018-09-10T08:35:37.089Z,99.99
2018-09-10T08:36:37.072Z,99.99
2018-09-10T08:37:37.069Z,99.99
2018-09-10T08:38:37.037Z,99.99
2018-09-10T08:39:37.021Z,99.99
2018-09-10T08:40:37.004Z,99.99
2018-09-10T08:41:36.987Z,99.99
2018-09-10T08:42:36.972Z,99.99
2018-09-10T08:43:36.959Z,99.99
2018-09-10T08:44:36.941Z,99.99
2018-09-10T08:45:36.927Z,99.99
2018-09-10T08:46:36.904Z,99.99
2018-09-10T08:47:36.890Z,99.99
2018-09-10T08:48:36.873Z,99.99
2018-09-10T08:49:36.854Z,99.99
2018-09-10T08:50:36.841Z,99.99
2018-09-10T08:51:36.822Z,99.99
2018-09-10T08:52:36.804Z,99.99
2018-09-10T08:53:36.791Z,99.99
2018-09-10T08:54:36.944Z,99.99
2018-09-10T08:55:36.975Z,99.99
2018-09-10T08:56:36.740Z,99.99
2018-09-10T08:57:36.720Z,99.99
2018-09-10T08:58:36.706Z,99.99
2018-09-10T08:59:36.689Z,99.99
2018-09-10T09:00:36.672Z,99.99
2018-09-10T09:01:36.654Z,99.99
2018-09-10T09:02:36.641Z,99.99
2018-09-10T09:03:36.620Z,99.99
2018-09-10T09:04:36.606Z,99.99
2018-09-10T09:05:36.588Z,99.99
2018-09-10T09:06:36.575Z,99.99
2018-09-10T09:07:36.555Z,99.99
2018-09-10T09:08:36.539Z,99.99
2018-09-10T09:09:36.522Z,99.99
2018-09-10T09:10:36.506Z,99.99
2018-09-10T09:11:36.502Z,99.99
2018-09-10T09:12:36.474Z,99.99
2018-09-10T09:13:36.461Z,99.99
2018-09-10T09:14:36.452Z,99.99
2018-09-10T09:15:36.423Z,99.99
2018-09-10T09:16:36.413Z,99.99
2018-09-10T09:17:36.434Z,99.99
2018-09-10T09:18:36.379Z,99.99
2018-09-10T09:19:36.365Z,99.99
2018-09-10T09:20:36.344Z,99.99
2018-09-10T09:21:36.329Z,99.99
2018-09-10T09:22:36.315Z,99.99
2018-09-10T09:23:36.378Z,99.98
2018-09-10T09:24:36.277Z,99.11
2018-09-10T09:25:36.267Z,97.76
2018-09-10T09:26:36.247Z,99.21
2018-09-10T09:27:36.229Z,98.82
2018-09-10T09:28:36.213Z,99.73
2018-09-10T09:29:36.205Z,98.58
2018-09-10T09:30:36.184Z,98.00
2018-09-10T09:31:36.170Z,97.04
2018-09-10T09:32:36.146Z,97.42
2018-09-10T09:33:36.131Z,97.47
2018-09-10T09:34:36.114Z,97.52
2018-09-10T09:35:36.102Z,95.89
2018-09-10T09:36:36.082Z,96.47
2018-09-10T09:37:36.064Z,96.85
2018-09-10T09:38:36.048Z,95.79
2018-09-10T09:39:36.031Z,96.75
2018-09-10T09:40:36.019Z,96.94
2018-09-10T09:41:36.000Z,96.56
2018-09-10T09:42:35.987Z,95.79
2018-09-10T09:43:35.969Z,94.83
2018-09-10T09:44:35.953Z,94.45
2018-09-10T09:45:35.938Z,95.40
2018-09-10T09:46:35.921Z,95.89
2018-09-10T09:47:35.905Z,96.08
2018-09-10T09:48:35.895Z,96.27
2018-09-10T09:49:35.873Z,95.40
2018-09-10T09:50:35.856Z,95.60
2018-09-10T09:51:35.841Z,96.85
2018-09-10T09:52:35.826Z,95.79
2018-09-10T09:53:35.807Z,96.27
2018-09-10T09:54:35.792Z,95.98
2018-09-10T09:55:35.779Z,95.70
2018-09-10T09:56:35.797Z,95.02
2018-09-10T09:57:35.745Z,95.17
2018-09-10T09:58:35.729Z,94.92
2018-09-10T09:59:35.712Z,94.15
2018-09-10T10:00:35.695Z,93.29
2018-09-10T10:01:35.679Z,94.25
2018-09-10T10:02:35.662Z,94.64
2018-09-10T10:03:35.655Z,95.12
2018-09-10T10:04:35.716Z,95.79
2018-09-10T10:05:35.621Z,96.27
2018-09-10T10:06:35.598Z,96.27
2018-09-10T10:07:35.590Z,96.27
2018-09-10T10:08:35.571Z,95.12
2018-09-10T10:09:35.551Z,94.45
2018-09-10T10:10:35.539Z,94.35
2018-09-10T10:11:35.548Z,94.54
2018-09-10T10:12:35.564Z,94.45
2018-09-10T10:13:35.493Z,94.25
2018-09-10T10:14:35.468Z,94.68
2018-09-10T10:15:35.452Z,95.12
2018-09-10T10:16:35.439Z,94.83
2018-09-10T10:17:35.423Z,94.06
2018-09-10T10:18:35.409Z,95.17
2018-09-10T10:19:35.402Z,93.77
2018-09-10T10:20:35.382Z,92.61
2018-09-10T10:21:35.362Z,92.91
2018-09-10T10:22:35.343Z,92.52
2018-09-10T10:23:35.326Z,94.35
2018-09-10T10:24:35.312Z,94.15
2018-09-10T10:25:35.295Z,93.96
2018-09-10T10:26:35.277Z,94.73
2018-09-10T10:27:35.264Z,93.58
2018-09-10T10:28:35.262Z,92.33
2018-09-10T10:29:35.231Z,92.52
2018-09-10T10:30:35.214Z,93.58
2018-09-10T10:31:35.199Z,93.10
2018-09-10T10:32:35.192Z,93.10
2018-09-10T10:33:35.167Z,93.68
2018-09-10T10:34:35.151Z,92.13
2018-09-10T10:35:35.138Z,92.71
2018-09-10T10:36:35.118Z,91.56
2018-09-10T10:37:35.103Z,89.15
2018-09-10T10:38:35.094Z,89.92
2018-09-10T10:39:35.076Z,91.66
2018-09-10T10:40:35.055Z,91.56
2018-09-10T10:41:35.058Z,90.02
2018-09-10T10:42:35.023Z,90.21
2018-09-10T10:43:35.008Z,90.31
2018-09-10T10:44:34.991Z,90.02
2018-09-10T10:45:34.986Z,89.83
2018-09-10T10:46:34.965Z,89.64
2018-09-10T10:47:35.018Z,89.92
2018-09-10T10:48:34.938Z,89.54
2018-09-10T10:49:34.909Z,89.44
2018-09-10T10:50:34.895Z,89.92
2018-09-10T10:51:34.884Z,90.41
2018-09-10T10:52:34.862Z,90.59
2018-09-10T10:53:34.905Z,90.41
2018-09-10T10:54:34.829Z,90.31
2018-09-10T10:55:34.813Z,91.08
2018-09-10T10:56:34.809Z,91.46
2018-09-10T10:57:34.784Z,90.79
2018-09-10T10:58:34.771Z,89.83
2018-09-10T10:59:34.757Z,91.66
2018-09-10T11:00:34.745Z,91.36
2018-09-10T11:01:34.721Z,91.46
2018-09-10T11:02:34.702Z,91.08
2018-09-10T11:03:34.687Z,91.46
2018-09-10T11:04:34.673Z,90.59
2018-09-10T11:05:34.655Z,89.73
2018-09-10T11:06:34.642Z,90.69
2018-09-10T11:07:34.620Z,90.50
2018-09-10T11:08:34.608Z,88.77
2018-09-10T11:09:34.592Z,89.20
2018-09-10T11:10:34.573Z,90.45
2018-09-10T11:11:34.560Z,89.29
2018-09-10T11:12:34.542Z,88.43
2018-09-10T11:13:34.524Z,88.14
2018-09-10T11:14:34.509Z,88.14
2018-09-10T11:15:34.495Z,87.18
2018-09-10T11:16:34.505Z,88.14
2018-09-10T11:17:34.467Z,88.14
2018-09-10T11:18:34.455Z,87.27
2018-09-10T11:19:34.431Z,87.37
2018-09-10T11:20:34.417Z,86.89
2018-09-10T11:21:34.403Z,86.99
2018-09-10T11:22:34.381Z,87.27
2018-09-10T11:23:34.365Z,87.22
2018-09-10T11:24:34.351Z,87.32
2018-09-10T11:25:34.332Z,86.93
2018-09-10T11:26:34.324Z,87.12
2018-09-10T11:27:34.340Z,85.97
2018-09-10T11:28:34.301Z,85.10
2018-09-10T11:29:34.271Z,85.39
2018-09-10T11:30:34.255Z,85.87
2018-09-10T11:31:34.238Z,87.51
2018-09-10T11:32:34.225Z,87.22
2018-09-10T11:33:34.209Z,85.49
2018-09-10T11:34:34.250Z,85.10
2018-09-10T11:35:34.177Z,84.72
2018-09-10T11:36:34.168Z,85.10
2018-09-10T11:37:34.148Z,85.58
2018-09-10T11:38:34.136Z,85.87
2018-09-10T11:39:34.121Z,86.16
2018-09-10T11:40:34.105Z,85.49
2018-09-10T11:41:34.082Z,85.97
2018-09-10T11:42:34.071Z,86.35
2018-09-10T11:43:34.052Z,86.93
2018-09-10T11:44:34.056Z,86.45
2018-09-10T11:45:34.021Z,86.45
2018-09-10T11:46:34.024Z,85.68
2018-09-10T11:47:33.989Z,86.26
2018-09-10T11:48:33.985Z,87.03
2018-09-10T11:49:33.966Z,85.10
2018-09-10T11:50:33.951Z,85.68
2018-09-10T11:51:33.932Z,85.87
2018-09-10T11:52:33.915Z,85.68
2018-09-10T11:53:33.899Z,85.58
2018-09-10T11:54:33.877Z,86.16
2018-09-10T11:55:33.940Z,86.55
2018-09-10T11:56:33.849Z,86.93
2018-09-10T11:57:33.831Z,88.09
2018-09-10T11:58:33.819Z,87.51
2018-09-10T11:59:33.806Z,87.32
2018-09-10T12:00:33.784Z,86.83
2018-09-10T12:01:33.778Z,87.22
2018-09-10T12:02:33.755Z,87.99
2018-09-10T12:03:33.738Z,88.18
2018-09-10T12:04:33.724Z,87.99
2018-09-10T12:05:33.707Z,88.28
2018-09-10T12:06:33.689Z,88.38
2018-09-10T12:07:33.673Z,87.90
2018-09-10T12:08:33.658Z,87.99
2018-09-10T12:09:33.642Z,89.24
2018-09-10T12:10:33.625Z,88.18
2018-09-10T12:11:33.628Z,88.76
2018-09-10T12:12:33.595Z,88.47
2018-09-10T12:13:33.583Z,88.67
2018-09-10T12:14:33.563Z,88.95
2018-09-10T12:15:33.556Z,88.76
2018-09-10T12:16:33.533Z,88.18
2018-09-10T12:17:33.517Z,89.05
2018-09-10T12:18:33.503Z,87.32
2018-09-10T12:19:33.486Z,88.18
2018-09-10T12:20:33.474Z,87.90
2018-09-10T12:21:33.477Z,86.74
2018-09-10T12:22:33.439Z,85.83
2018-09-10T12:23:33.423Z,86.55
2018-09-10T12:24:33.407Z,87.60
2018-09-10T12:25:33.398Z,87.51
2018-09-10T12:26:33.395Z,87.32
2018-09-10T12:27:33.362Z,85.68
2018-09-10T12:28:33.347Z,85.58
2018-09-10T12:29:33.327Z,86.07
2018-09-10T12:30:33.311Z,85.78
2018-09-10T12:31:33.298Z,85.97
2018-09-10T12:32:33.385Z,86.35
2018-09-10T12:33:33.264Z,85.68
2018-09-10T12:34:33.254Z,86.16
2018-09-10T12:35:33.246Z,86.65
2018-09-10T12:36:33.223Z,87.03
2018-09-10T12:37:33.220Z,85.58
2018-09-10T12:38:33.192Z,85.30
2018-09-10T12:39:33.200Z,85.10
2018-09-10T12:40:33.153Z,85.20
2018-09-10T12:41:33.138Z,85.39
2018-09-10T12:42:33.121Z,84.91
2018-09-10T12:43:33.109Z,83.37
2018-09-10T12:44:33.095Z,84.14
2018-09-10T12:45:33.082Z,85.39
2018-09-10T12:46:33.105Z,86.55
2018-09-10T12:47:33.042Z,86.55
2018-09-10T12:48:33.027Z,84.91
2018-09-10T12:49:33.012Z,85.30
2018-09-10T12:50:32.993Z,84.23
2018-09-10T12:51:32.978Z,85.05
2018-09-10T12:52:32.970Z,84.09